createdAt,value
2019-02-15T00:00:12.566Z,4.20
2019-02-15T00:02:41.177Z,4.20
2019-02-15T00:05:09.798Z,4.10
2019-02-15T00:07:38.364Z,4.00
2019-02-15T00:10:07.379Z,4.00
2019-02-15T00:12:35.990Z,4.00
2019-02-15T00:15:05.493Z,3.90
2019-02-15T00:17:51.797Z,3.90
2019-02-15T00:20:21.933Z,3.90
2019-02-15T00:22:50.644Z,3.80
2019-02-15T00:25:19.113Z,3.80
2019-02-15T00:27:47.685Z,3.70
2019-02-15T00:30:16.366Z,3.70
2019-02-15T00:32:44.834Z,3.70
2019-02-15T00:35:13.477Z,3.60
2019-02-15T00:37:42.029Z,3.60
2019-02-15T00:40:10.633Z,3.60
2019-02-15T00:42:39.128Z,3.60
2019-02-15T00:45:09.381Z,3.50
2019-02-15T00:47:42.537Z,3.50
2019-02-15T00:50:15.233Z,3.50
2019-02-15T00:52:45.351Z,3.40
2019-02-15T00:55:18.264Z,3.40
2019-02-15T00:57:57.397Z,3.30
2019-02-15T01:00:39.489Z,3.20
2019-02-15T01:03:09.665Z,3.20
2019-02-15T01:05:39.843Z,3.10
2019-02-15T01:08:10.021Z,3.00
2019-02-15T01:10:40.258Z,3.00
2019-02-15T01:13:10.438Z,2.90
2019-02-15T01:15:39.050Z,2.80
2019-02-15T01:18:07.705Z,2.80
2019-02-15T01:20:36.241Z,2.80
2019-02-15T01:23:04.787Z,2.70
2019-02-15T01:25:34.984Z,2.80
2019-02-15T01:28:05.088Z,2.70
2019-02-15T01:30:38.294Z,2.70
2019-02-15T01:33:09.960Z,2.80
2019-02-15T01:35:48.897Z,2.80
2019-02-15T01:38:20.138Z,2.80
2019-02-15T01:40:50.325Z,2.80
2019-02-15T01:43:26.529Z,2.70
2019-02-15T01:46:02.855Z,2.80
2019-02-15T01:48:31.442Z,2.80
2019-02-15T01:50:59.989Z,2.80
2019-02-15T01:53:28.533Z,2.80
2019-02-15T01:55:57.034Z,2.70
2019-02-15T01:58:25.580Z,2.70
2019-02-15T02:00:54.121Z,2.70
2019-02-15T02:03:22.701Z,2.70
2019-02-15T02:05:51.249Z,2.60
2019-02-15T02:08:21.669Z,2.70
2019-02-15T02:10:50.365Z,2.60
2019-02-15T02:13:18.833Z,2.60
2019-02-15T02:15:47.377Z,2.60
2019-02-15T02:18:15.957Z,2.60
2019-02-15T02:20:44.643Z,2.50
2019-02-15T02:23:13.186Z,2.50
2019-02-15T02:25:41.861Z,2.50
2019-02-15T02:28:10.405Z,2.50
2019-02-15T02:30:39.027Z,2.50
2019-02-15T02:33:07.603Z,2.50
2019-02-15T02:35:36.221Z,2.40
2019-02-15T02:38:04.911Z,2.40
2019-02-15T02:40:33.497Z,2.30
2019-02-15T02:43:02.033Z,2.20
2019-02-15T02:45:30.574Z,2.20
2019-02-15T02:47:59.226Z,2.20
2019-02-15T02:50:27.773Z,2.20
2019-02-15T02:52:56.321Z,2.10
2019-02-15T02:55:24.909Z,2.10
2019-02-15T02:57:53.380Z,2.10
2019-02-15T03:00:21.868Z,2.00
2019-02-15T03:02:50.585Z,2.10
2019-02-15T03:05:19.286Z,2.10
2019-02-15T03:07:47.814Z,2.00
2019-02-15T03:10:18.325Z,2.00
2019-02-15T03:12:46.874Z,2.00
2019-02-15T03:15:15.491Z,2.10
2019-02-15T03:17:44.061Z,2.00
2019-02-15T03:20:12.606Z,2.00
2019-02-15T03:22:41.217Z,2.00
2019-02-15T03:25:09.861Z,2.00
2019-02-15T03:27:38.335Z,1.90
2019-02-15T03:30:09.118Z,2.00
2019-02-15T03:32:37.702Z,1.90
2019-02-15T03:35:08.789Z,1.90
2019-02-15T03:37:41.783Z,1.80
2019-02-15T03:40:12.105Z,1.70
2019-02-15T03:42:40.569Z,1.70
2019-02-15T03:45:10.138Z,1.60
2019-02-15T03:47:38.808Z,1.50
2019-02-15T03:50:08.729Z,1.30
2019-02-15T03:52:37.298Z,1.20
2019-02-15T03:55:06.691Z,1.10
2019-02-15T03:57:35.376Z,1.00
2019-02-15T04:00:05.561Z,1.00
2019-02-15T04:02:34.269Z,0.90
2019-02-15T04:05:02.809Z,0.80
2019-02-15T04:07:31.340Z,0.80
2019-02-15T04:09:59.989Z,0.70
2019-02-15T04:12:28.633Z,0.60
2019-02-15T04:15:04.759Z,0.60
2019-02-15T04:17:33.346Z,0.60
2019-02-15T04:20:01.894Z,0.50
2019-02-15T04:22:30.505Z,0.50
2019-02-15T04:24:59.085Z,0.40
2019-02-15T04:27:27.712Z,0.30
2019-02-15T04:29:56.264Z,0.20
2019-02-15T04:32:24.901Z,0.20
2019-02-15T04:34:53.375Z,0.10
2019-02-15T04:37:21.948Z,0.10
2019-02-15T04:39:50.480Z,0.00
2019-02-15T04:42:18.962Z,0.00
2019-02-15T04:44:47.502Z,-0.10
2019-02-15T04:47:16.014Z,-0.10
2019-02-15T04:49:44.572Z,-0.10
2019-02-15T04:52:13.123Z,-0.10
2019-02-15T04:54:41.716Z,-0.10
2019-02-15T04:57:10.261Z,-0.10
2019-02-15T04:59:38.816Z,-0.10
2019-02-15T05:02:07.385Z,-0.10
2019-02-15T05:04:35.865Z,-0.10
2019-02-15T05:07:04.549Z,-0.20
2019-02-15T05:09:33.062Z,-0.20
2019-02-15T05:12:01.542Z,-0.10
2019-02-15T05:14:33.172Z,-0.10
2019-02-15T05:17:01.753Z,-0.10
2019-02-15T05:19:30.311Z,-0.10
2019-02-15T05:21:58.935Z,0.00
2019-02-15T05:24:27.523Z,0.00
2019-02-15T05:26:56.144Z,0.10
2019-02-15T05:29:24.690Z,0.10
2019-02-15T05:31:53.186Z,0.20
2019-02-15T05:34:21.737Z,0.30
2019-02-15T05:36:50.284Z,0.30
2019-02-15T05:39:18.930Z,0.30
2019-02-15T05:41:47.478Z,0.40
2019-02-15T05:44:16.409Z,0.50
2019-02-15T05:46:45.135Z,0.50
2019-02-15T05:49:13.673Z,0.60
2019-02-15T05:51:42.152Z,0.70
2019-02-15T05:54:10.778Z,0.70
2019-02-15T05:56:39.315Z,0.60
2019-02-15T05:59:07.853Z,0.70
2019-02-15T06:01:36.542Z,0.70
2019-02-15T06:04:05.152Z,0.60
2019-02-15T06:06:33.701Z,0.50
2019-02-15T06:09:02.351Z,0.50
2019-02-15T06:11:30.894Z,0.50
2019-02-15T06:13:59.514Z,0.50
2019-02-15T06:16:28.166Z,0.40
2019-02-15T06:18:56.780Z,0.40
2019-02-15T06:21:25.323Z,0.40
2019-02-15T06:23:53.906Z,0.30
2019-02-15T06:26:22.452Z,0.30
2019-02-15T06:28:50.993Z,0.30
2019-02-15T06:31:19.560Z,0.30
2019-02-15T06:33:48.106Z,0.30
2019-02-15T06:36:16.722Z,0.30
2019-02-15T06:38:45.342Z,0.40
2019-02-15T06:41:13.824Z,0.50
2019-02-15T06:43:42.306Z,0.60
2019-02-15T06:46:10.881Z,0.70
2019-02-15T06:48:39.460Z,0.70
2019-02-15T06:51:08.057Z,0.80
2019-02-15T06:53:36.789Z,0.80
2019-02-15T06:56:05.321Z,0.80
2019-02-15T06:58:34.719Z,0.90
2019-02-15T07:01:16.834Z,0.90
2019-02-15T07:03:47.021Z,0.90
2019-02-15T07:06:15.634Z,0.90
2019-02-15T07:08:44.137Z,0.90
2019-02-15T07:11:12.690Z,0.90
2019-02-15T07:13:42.273Z,1.00
2019-02-15T07:16:10.769Z,1.00
2019-02-15T07:18:39.242Z,1.00
2019-02-15T07:21:07.712Z,1.10
2019-02-15T07:23:36.222Z,1.10
2019-02-15T07:26:04.764Z,1.20
2019-02-15T07:28:33.233Z,1.20
2019-02-15T07:31:01.742Z,1.30
2019-02-15T07:33:30.353Z,1.40
2019-02-15T07:35:58.966Z,1.40
2019-02-15T07:38:27.460Z,1.50
2019-02-15T07:40:55.948Z,1.50
2019-02-15T07:43:24.494Z,1.50
2019-02-15T07:45:53.078Z,1.60
2019-02-15T07:48:21.541Z,1.70
2019-02-15T07:50:50.153Z,1.80
2019-02-15T07:53:18.731Z,1.80
2019-02-15T07:55:47.273Z,2.00
2019-02-15T07:58:15.817Z,2.00
2019-02-15T08:00:44.337Z,2.10
2019-02-15T08:03:12.869Z,2.10
2019-02-15T08:05:41.413Z,2.20
2019-02-15T08:08:10.013Z,2.20
2019-02-15T08:10:39.510Z,2.30
2019-02-15T08:13:08.097Z,2.50
2019-02-15T08:15:36.771Z,2.60
2019-02-15T08:18:05.293Z,2.70
2019-02-15T08:20:33.836Z,2.80
2019-02-15T08:23:02.409Z,2.80
2019-02-15T08:25:31.013Z,2.80
2019-02-15T08:27:59.554Z,2.80
2019-02-15T08:30:28.132Z,2.70
2019-02-15T08:32:56.677Z,2.70
2019-02-15T08:35:25.229Z,2.70
2019-02-15T08:37:53.807Z,2.70
2019-02-15T08:40:22.353Z,2.60
2019-02-15T08:42:50.901Z,2.60
2019-02-15T08:45:19.401Z,2.60
2019-02-15T08:47:48.100Z,2.50
2019-02-15T08:50:16.616Z,2.40
2019-02-15T08:52:45.201Z,2.40
2019-02-15T08:55:13.743Z,2.40
2019-02-15T08:57:42.357Z,2.50
2019-02-15T09:00:12.880Z,2.50
2019-02-15T09:02:41.481Z,2.50
2019-02-15T09:05:12.159Z,2.50
2019-02-15T09:07:40.808Z,2.40
2019-02-15T09:10:13.357Z,2.40
2019-02-15T09:12:41.964Z,2.40
2019-02-15T09:15:13.553Z,2.40
2019-02-15T09:17:42.096Z,2.40
2019-02-15T09:20:11.815Z,2.40
2019-02-15T09:22:40.453Z,2.40
2019-02-15T09:25:10.663Z,2.40
2019-02-15T09:27:46.541Z,2.50
2019-02-15T09:30:15.358Z,2.50
2019-02-15T09:32:44.048Z,2.60
2019-02-15T09:35:12.777Z,2.60
2019-02-15T09:37:41.322Z,2.60
2019-02-15T09:40:10.542Z,2.60
2019-02-15T09:42:39.182Z,2.60
2019-02-15T09:45:10.869Z,2.60
2019-02-15T09:47:39.415Z,2.60
2019-02-15T09:50:12.013Z,2.70
2019-02-15T09:52:40.025Z,2.70
2019-02-15T09:55:08.715Z,2.80
2019-02-15T09:57:37.375Z,2.80
2019-02-15T10:00:08.460Z,2.70
2019-02-15T10:02:37.015Z,2.80
2019-02-15T10:05:07.025Z,2.70
2019-02-15T10:07:35.638Z,2.70
2019-02-15T10:10:06.122Z,2.90
2019-02-15T10:12:34.762Z,2.90
2019-02-15T10:15:03.649Z,2.90
2019-02-15T10:17:32.194Z,3.00
2019-02-15T10:20:00.706Z,3.00
2019-02-15T10:22:29.243Z,3.00
2019-02-15T10:24:57.786Z,3.00
2019-02-15T10:27:26.377Z,3.00
2019-02-15T10:29:54.914Z,3.00
2019-02-15T10:32:23.538Z,3.00
2019-02-15T10:34:52.107Z,3.10
2019-02-15T10:37:20.663Z,3.20
2019-02-15T10:39:49.190Z,3.20
2019-02-15T10:42:17.766Z,3.30
2019-02-15T10:44:46.377Z,3.30
2019-02-15T10:47:24.496Z,3.30
2019-02-15T10:49:45.153Z,3.40
2019-02-15T10:52:13.760Z,3.40
2019-02-15T10:54:42.398Z,3.50
2019-02-15T10:57:14.022Z,3.50
2019-02-15T10:59:42.494Z,3.60
2019-02-15T11:02:11.103Z,3.70
2019-02-15T11:04:41.104Z,3.70
2019-02-15T11:07:09.713Z,3.70
2019-02-15T11:09:38.517Z,3.90
2019-02-15T11:12:07.189Z,3.70
2019-02-15T11:14:35.659Z,3.80
2019-02-15T11:17:04.469Z,3.80
2019-02-15T11:19:33.041Z,3.80
2019-02-15T11:22:01.669Z,3.70
2019-02-15T11:24:30.221Z,3.70
2019-02-15T11:26:58.732Z,3.70
2019-02-15T11:29:27.255Z,3.80
2019-02-15T11:31:55.793Z,3.90
2019-02-15T11:34:24.369Z,3.80
2019-02-15T11:36:52.961Z,3.80
2019-02-15T11:39:22.993Z,3.80
2019-02-15T11:41:51.745Z,3.90
2019-02-15T11:44:20.293Z,3.90
2019-02-15T11:46:56.542Z,3.90
2019-02-15T11:49:19.093Z,3.90
2019-02-15T11:51:47.637Z,4.00
2019-02-15T11:54:23.284Z,4.00
2019-02-15T11:56:46.470Z,4.10
2019-02-15T11:59:15.022Z,4.10
2019-02-15T12:01:43.564Z,4.20
2019-02-15T12:04:12.144Z,4.20
2019-02-15T12:06:40.772Z,4.10
2019-02-15T12:09:09.309Z,4.10
2019-02-15T12:11:37.877Z,4.10
2019-02-15T12:14:06.429Z,4.20
2019-02-15T12:16:34.965Z,4.20
2019-02-15T12:19:03.477Z,4.20
2019-02-15T12:21:31.945Z,4.20
2019-02-15T12:24:00.419Z,4.20
2019-02-15T12:26:28.992Z,4.20
2019-02-15T12:28:57.601Z,4.20
2019-02-15T12:31:26.079Z,4.10
2019-02-15T12:33:54.649Z,4.10
2019-02-15T12:36:23.235Z,4.20
2019-02-15T12:38:51.778Z,4.20
2019-02-15T12:41:22.200Z,4.20
2019-02-15T12:43:50.774Z,4.20
2019-02-15T12:46:19.328Z,4.20
2019-02-15T12:48:48.045Z,4.20
2019-02-15T12:51:16.620Z,4.10
2019-02-15T12:53:45.168Z,4.10
2019-02-15T12:56:13.740Z,4.10
2019-02-15T12:58:42.291Z,4.10
2019-02-15T13:01:10.910Z,4.10
2019-02-15T13:03:39.418Z,4.10
2019-02-15T13:06:07.971Z,4.10
2019-02-15T13:08:36.522Z,4.10
2019-02-15T13:11:05.201Z,4.10
2019-02-15T13:13:33.670Z,4.10
2019-02-15T13:16:02.150Z,4.20
2019-02-15T13:18:30.739Z,4.30
2019-02-15T13:20:59.359Z,4.30
2019-02-15T13:23:27.982Z,4.40
2019-02-15T13:25:56.812Z,4.50
2019-02-15T13:28:25.397Z,4.50
2019-02-15T13:30:54.014Z,4.70
2019-02-15T13:33:22.673Z,4.50
2019-02-15T13:35:51.145Z,4.60
2019-02-15T13:38:19.689Z,4.50
2019-02-15T13:40:48.192Z,4.50
2019-02-15T13:43:16.736Z,4.50
2019-02-15T13:45:45.281Z,4.70
2019-02-15T13:48:13.790Z,4.80
2019-02-15T13:50:42.409Z,4.80
2019-02-15T13:53:10.879Z,4.70
2019-02-15T13:55:39.466Z,4.60
2019-02-15T13:58:08.030Z,4.60
2019-02-15T14:00:36.502Z,4.60
2019-02-15T14:03:05.072Z,4.60
2019-02-15T14:05:33.615Z,4.70
2019-02-15T14:08:03.142Z,4.70
2019-02-15T14:10:31.797Z,4.80
2019-02-15T14:13:00.265Z,4.80
2019-02-15T14:15:28.805Z,4.80
2019-02-15T14:17:57.377Z,4.90
2019-02-15T14:20:25.917Z,4.90
2019-02-15T14:22:54.391Z,4.90
2019-02-15T14:25:22.961Z,5.00
2019-02-15T14:27:51.505Z,4.90
2019-02-15T14:30:21.009Z,4.80
2019-02-15T14:32:49.517Z,4.90
2019-02-15T14:35:18.058Z,4.90
2019-02-15T14:37:46.605Z,4.80
2019-02-15T14:40:15.321Z,4.80
2019-02-15T14:42:43.884Z,4.70
2019-02-15T14:45:13.153Z,4.50
2019-02-15T14:47:41.903Z,4.50
2019-02-15T14:50:11.173Z,4.30
2019-02-15T14:52:39.833Z,4.20
2019-02-15T14:55:10.439Z,4.20
2019-02-15T14:57:39.062Z,4.10
2019-02-15T15:00:12.752Z,4.10
2019-02-15T15:02:41.385Z,4.00
2019-02-15T15:05:12.467Z,4.00
2019-02-15T15:07:41.154Z,4.00
2019-02-15T15:10:10.501Z,3.90
2019-02-15T15:12:39.121Z,3.80
2019-02-15T15:15:12.559Z,3.80
2019-02-15T15:17:41.136Z,3.70
2019-02-15T15:20:11.523Z,3.70
2019-02-15T15:22:40.274Z,3.60
2019-02-15T15:25:13.074Z,3.60
2019-02-15T15:27:41.620Z,3.60
2019-02-15T15:30:17.665Z,3.50
2019-02-15T15:32:46.401Z,3.50
2019-02-15T15:35:15.088Z,3.50
2019-02-15T15:37:43.737Z,3.40
2019-02-15T15:40:13.926Z,3.50
2019-02-15T15:42:42.550Z,3.40
2019-02-15T15:45:12.276Z,3.40
2019-02-15T15:47:40.963Z,3.30
2019-02-15T15:50:11.255Z,3.40
2019-02-15T15:52:39.985Z,3.30
2019-02-15T15:55:13.386Z,3.20
2019-02-15T15:57:41.934Z,3.10
2019-02-15T16:00:13.329Z,3.00
2019-02-15T16:02:42.111Z,2.90
2019-02-15T16:05:11.206Z,2.80
2019-02-15T16:07:39.877Z,2.70
2019-02-15T16:10:15.173Z,2.70
2019-02-15T16:12:43.797Z,2.60
2019-02-15T16:15:13.346Z,2.50
2019-02-15T16:17:42.066Z,2.50
2019-02-15T16:20:12.646Z,2.40
2019-02-15T16:22:41.466Z,2.30
2019-02-15T16:25:11.460Z,2.40
2019-02-15T16:27:40.113Z,2.30
2019-02-15T16:30:13.765Z,2.20
2019-02-15T16:32:42.236Z,2.20
2019-02-15T16:35:10.875Z,2.20
2019-02-15T16:37:39.559Z,2.10
2019-02-15T16:40:13.818Z,2.00
2019-02-15T16:42:42.609Z,2.10
2019-02-15T16:45:17.273Z,1.90
2019-02-15T16:47:45.746Z,1.90
2019-02-15T16:50:14.476Z,1.80
2019-02-15T16:52:43.086Z,1.70
2019-02-15T16:55:13.180Z,1.60
2019-02-15T16:57:42.118Z,1.50
2019-02-15T17:00:12.678Z,1.40
2019-02-15T17:02:41.217Z,1.30
2019-02-15T17:05:09.959Z,1.20
2019-02-15T17:07:38.502Z,1.10
2019-02-15T17:10:09.760Z,1.00
2019-02-15T17:12:38.405Z,1.00
2019-02-15T17:15:11.653Z,0.90
2019-02-15T17:17:40.275Z,0.80
2019-02-15T17:20:09.993Z,0.70
2019-02-15T17:22:38.681Z,0.70
2019-02-15T17:25:09.569Z,0.60
2019-02-15T17:27:41.421Z,0.60
2019-02-15T17:30:11.766Z,0.60
2019-02-15T17:32:40.311Z,0.70
2019-02-15T17:35:12.786Z,0.70
2019-02-15T17:37:41.466Z,0.80
2019-02-15T17:40:12.250Z,0.90
2019-02-15T17:42:40.889Z,1.00
2019-02-15T17:45:11.019Z,1.00
2019-02-15T17:47:39.562Z,1.20
2019-02-15T17:50:11.921Z,1.30
2019-02-15T17:52:40.576Z,1.40
2019-02-15T17:55:10.186Z,1.40
2019-02-15T17:57:38.829Z,1.40
2019-02-15T18:00:12.389Z,1.40
2019-02-15T18:02:40.937Z,1.50
2019-02-15T18:05:12.129Z,1.40
2019-02-15T18:07:40.672Z,1.40
2019-02-15T18:10:09.291Z,1.40
2019-02-15T18:12:37.865Z,1.40
2019-02-15T18:15:06.779Z,1.30
2019-02-15T18:17:35.330Z,1.30
2019-02-15T18:20:04.834Z,1.30
2019-02-15T18:22:33.324Z,1.30
2019-02-15T18:25:01.857Z,1.40
2019-02-15T18:27:30.429Z,1.30
2019-02-15T18:29:58.907Z,1.40
2019-02-15T18:32:27.530Z,1.30
2019-02-15T18:34:56.187Z,1.30
2019-02-15T18:37:24.759Z,1.30
2019-02-15T18:39:53.361Z,1.20
2019-02-15T18:42:22.019Z,1.20
2019-02-15T18:44:50.569Z,1.20
2019-02-15T18:47:19.117Z,1.20
2019-02-15T18:49:47.762Z,1.10
2019-02-15T18:52:16.314Z,1.10
2019-02-15T18:54:44.798Z,1.00
2019-02-15T18:57:13.377Z,1.00
2019-02-15T18:59:42.061Z,1.00
2019-02-15T19:02:10.606Z,0.90
2019-02-15T19:04:39.239Z,0.90
2019-02-15T19:07:07.740Z,0.90
2019-02-15T19:09:36.288Z,0.80
2019-02-15T19:12:04.932Z,0.80
2019-02-15T19:14:33.489Z,0.80
2019-02-15T19:17:02.101Z,0.70
2019-02-15T19:19:30.746Z,0.70
2019-02-15T19:21:59.356Z,0.60
2019-02-15T19:24:27.986Z,0.60
2019-02-15T19:26:56.489Z,0.60
2019-02-15T19:29:25.043Z,0.50
2019-02-15T19:31:53.573Z,0.40
2019-02-15T19:34:22.077Z,0.40
2019-02-15T19:36:50.638Z,0.40
2019-02-15T19:39:19.282Z,0.30
2019-02-15T19:41:48.096Z,0.20
2019-02-15T19:44:16.706Z,0.20
2019-02-15T19:46:45.185Z,0.10
2019-02-15T19:49:13.748Z,0.10
2019-02-15T19:51:42.232Z,0.10
2019-02-15T19:54:10.774Z,0.00
2019-02-15T19:56:39.423Z,0.00
2019-02-15T19:59:08.042Z,-0.10
2019-02-15T20:01:36.531Z,-0.10
2019-02-15T20:04:05.268Z,-0.10
2019-02-15T20:06:33.890Z,-0.10
2019-02-15T20:09:02.563Z,-0.20
2019-02-15T20:11:31.092Z,-0.20
2019-02-15T20:14:00.172Z,-0.20
2019-02-15T20:16:28.841Z,-0.30
2019-02-15T20:18:57.498Z,-0.20
2019-02-15T20:21:26.057Z,-0.20
2019-02-15T20:23:54.609Z,-0.30
2019-02-15T20:26:23.117Z,-0.30
2019-02-15T20:28:51.821Z,-0.30
2019-02-15T20:31:20.381Z,-0.40
2019-02-15T20:33:48.962Z,-0.40
2019-02-15T20:36:17.510Z,-0.40
2019-02-15T20:38:46.072Z,-0.50
2019-02-15T20:41:14.646Z,-0.50
2019-02-15T20:43:43.188Z,-0.50
2019-02-15T20:46:11.737Z,-0.50
2019-02-15T20:48:40.248Z,-0.50
2019-02-15T20:51:08.793Z,-0.50
2019-02-15T20:53:37.342Z,-0.50
2019-02-15T20:56:05.929Z,-0.60
2019-02-15T20:58:34.552Z,-0.60
2019-02-15T21:01:03.184Z,-0.60
2019-02-15T21:03:31.818Z,-0.60
2019-02-15T21:06:00.365Z,-0.60
2019-02-15T21:08:28.987Z,-0.70
2019-02-15T21:10:57.586Z,-0.70
2019-02-15T21:13:26.130Z,-0.80
2019-02-15T21:15:54.682Z,-0.80
2019-02-15T21:18:23.589Z,-0.80
2019-02-15T21:20:52.139Z,-0.80
2019-02-15T21:23:20.782Z,-0.80
2019-02-15T21:25:49.392Z,-0.90
2019-02-15T21:28:17.966Z,-0.90
2019-02-15T21:30:47.977Z,-1.00
2019-02-15T21:33:17.072Z,-1.00
2019-02-15T21:35:45.550Z,-1.00
2019-02-15T21:38:14.088Z,-1.10
2019-02-15T21:40:42.597Z,-1.10
2019-02-15T21:43:11.225Z,-1.10
2019-02-15T21:45:39.850Z,-1.10
2019-02-15T21:48:08.423Z,-1.00
2019-02-15T21:50:36.900Z,-1.00
2019-02-15T21:53:05.600Z,-1.00
2019-02-15T21:55:34.185Z,-1.00
2019-02-15T21:58:02.744Z,-1.00
2019-02-15T22:00:31.365Z,-1.00
2019-02-15T22:02:59.949Z,-1.00
2019-02-15T22:05:28.565Z,-1.00
2019-02-15T22:07:57.116Z,-1.00
2019-02-15T22:10:25.776Z,-1.00
2019-02-15T22:12:54.335Z,-1.00
2019-02-15T22:15:22.950Z,-1.00
2019-02-15T22:17:51.549Z,-1.00
2019-02-15T22:20:26.239Z,-1.00
2019-02-15T22:22:50.313Z,-1.00
2019-02-15T22:25:18.896Z,-1.00
2019-02-15T22:27:47.382Z,-1.00
2019-02-15T22:30:18.112Z,-1.00
2019-02-15T22:32:47.543Z,-1.00
2019-02-15T22:35:16.153Z,-1.00
2019-02-15T22:37:44.696Z,-1.00
2019-02-15T22:40:29.835Z,-1.00
2019-02-15T22:43:10.140Z,-1.10
2019-02-15T22:45:38.661Z,-1.10
2019-02-15T22:48:07.205Z,-1.10
2019-02-15T22:50:36.514Z,-1.00
2019-02-15T22:53:05.145Z,-1.10
2019-02-15T22:55:33.794Z,-1.10
2019-02-15T22:58:04.463Z,-1.10
2019-02-15T23:00:48.680Z,-1.20
2019-02-15T23:03:19.141Z,-1.20
2019-02-15T23:05:47.753Z,-1.20
2019-02-15T23:08:16.464Z,-1.20
2019-02-15T23:10:45.076Z,-1.20
2019-02-15T23:13:13.563Z,-1.30
2019-02-15T23:15:42.378Z,-1.30
2019-02-15T23:18:10.994Z,-1.30
2019-02-15T23:20:45.195Z,-1.20
2019-02-15T23:23:09.768Z,-1.20
2019-02-15T23:25:38.384Z,-1.30
2019-02-15T23:28:07.001Z,-1.30
2019-02-15T23:30:35.585Z,-1.30
2019-02-15T23:33:05.681Z,-1.30
2019-02-15T23:35:34.362Z,-1.30
2019-02-15T23:38:03.017Z,-1.40
2019-02-15T23:40:31.592Z,-1.40
2019-02-15T23:43:00.141Z,-1.40
2019-02-15T23:45:30.343Z,-1.50
2019-02-15T23:47:58.888Z,-1.50
2019-02-15T23:50:29.010Z,-1.60
2019-02-15T23:52:57.585Z,-1.60
2019-02-15T23:55:26.206Z,-1.60
2019-02-15T23:57:54.761Z,-1.70
